Terminal Aerodrome Forecast
Issued by NWS

Home | Current Version | Previous Version | Text Only | Print | Product List | Glossary On
Versions: 1 2 3 4 5 6 7 8 9 10 11 12 13 14
000
FTUS44 KTSA 010500 RRA
TAFMLC
TAF
KMLC 010544Z 0106/0206 16006KT 5SM -RA BR OVC012
      TEMPO 0106/0109 2SM -RA BR OVC006
     FM011400 28014G21KT P6SM OVC020
     FM011800 32017G24KT P6SM OVC030
     FM012100 33020G28KT P6SM BKN045
     FM012300 33021G28KT P6SM SKC=

USA.gov is the U.S. government's official web portal to all federal, state and local government web resources and services.